sensor_id;sensor_type;location;lat;lon;timestamp;P1;durP1;ratioP1;P2;durP2;ratioP2
61435;SDS011;47304;47.456;19.160;2023-08-21T00:01:27;15.20;;;12.00;;
61435;SDS011;47304;47.456;19.160;2023-08-21T00:03:53;14.80;;;11.70;;
61435;SDS011;47304;47.456;19.160;2023-08-21T00:06:20;17.20;;;12.30;;
61435;SDS011;47304;47.456;19.160;2023-08-21T00:08:47;16.40;;;12.40;;
61435;SDS011;47304;47.456;19.160;2023-08-21T00:11:13;14.90;;;11.90;;
61435;SDS011;47304;47.456;19.160;2023-08-21T00:13:40;16.20;;;12.20;;
61435;SDS011;47304;47.456;19.160;2023-08-21T00:16:07;18.00;;;12.70;;
61435;SDS011;47304;47.456;19.160;2023-08-21T00:18:33;17.10;;;12.10;;
61435;SDS011;47304;47.456;19.160;2023-08-21T00:21:00;19.60;;;13.10;;
61435;SDS011;47304;47.456;19.160;2023-08-21T00:23:26;16.90;;;12.60;;
61435;SDS011;47304;47.456;19.160;2023-08-21T00:25:53;16.90;;;11.30;;
61435;SDS011;47304;47.456;19.160;2023-08-21T00:28:19;16.30;;;12.60;;
61435;SDS011;47304;47.456;19.160;2023-08-21T00:30:46;15.40;;;12.10;;
61435;SDS011;47304;47.456;19.160;2023-08-21T00:33:12;18.40;;;13.10;;
61435;SDS011;47304;47.456;19.160;2023-08-21T00:35:39;16.40;;;12.30;;
61435;SDS011;47304;47.456;19.160;2023-08-21T00:38:05;17.30;;;13.10;;
61435;SDS011;47304;47.456;19.160;2023-08-21T00:40:32;19.30;;;13.00;;
61435;SDS011;47304;47.456;19.160;2023-08-21T00:42:59;14.70;;;11.70;;
61435;SDS011;47304;47.456;19.160;2023-08-21T00:45:25;16.50;;;12.70;;
61435;SDS011;47304;47.456;19.160;2023-08-21T00:47:52;17.00;;;12.50;;
61435;SDS011;47304;47.456;19.160;2023-08-21T00:50:19;15.90;;;12.10;;
61435;SDS011;47304;47.456;19.160;2023-08-21T00:52:45;16.60;;;12.10;;
61435;SDS011;47304;47.456;19.160;2023-08-21T00:55:13;16.60;;;11.70;;
61435;SDS011;47304;47.456;19.160;2023-08-21T00:57:39;15.50;;;12.00;;
61435;SDS011;47304;47.456;19.160;2023-08-21T01:00:07;15.40;;;12.30;;
61435;SDS011;47304;47.456;19.160;2023-08-21T01:02:34;16.30;;;12.90;;
61435;SDS011;47304;47.456;19.160;2023-08-21T01:05:02;15.30;;;11.60;;
61435;SDS011;47304;47.456;19.160;2023-08-21T01:07:28;14.50;;;11.50;;
61435;SDS011;47304;47.456;19.160;2023-08-21T01:10:09;14.00;;;10.90;;
61435;SDS011;47304;47.456;19.160;2023-08-21T01:15:16;14.90;;;11.20;;
61435;SDS011;47304;47.456;19.160;2023-08-21T01:17:43;15.10;;;10.80;;
61435;SDS011;47304;47.456;19.160;2023-08-21T01:20:12;13.80;;;11.10;;
61435;SDS011;47304;47.456;19.160;2023-08-21T01:22:41;15.90;;;10.70;;
61435;SDS011;47304;47.456;19.160;2023-08-21T01:25:08;13.70;;;10.90;;
61435;SDS011;47304;47.456;19.160;2023-08-21T01:27:34;13.90;;;10.10;;
61435;SDS011;47304;47.456;19.160;2023-08-21T01:30:02;13.60;;;10.30;;
61435;SDS011;47304;47.456;19.160;2023-08-21T01:32:43;13.40;;;10.90;;
61435;SDS011;47304;47.456;19.160;2023-08-21T01:35:20;13.30;;;10.60;;
61435;SDS011;47304;47.456;19.160;2023-08-21T01:37:48;14.90;;;10.40;;
61435;SDS011;47304;47.456;19.160;2023-08-21T01:40:24;14.30;;;10.90;;
61435;SDS011;47304;47.456;19.160;2023-08-21T01:42:54;16.90;;;11.90;;
61435;SDS011;47304;47.456;19.160;2023-08-21T01:45:21;14.30;;;11.10;;
61435;SDS011;47304;47.456;19.160;2023-08-21T01:47:48;14.70;;;10.90;;
61435;SDS011;47304;47.456;19.160;2023-08-21T01:50:15;14.00;;;10.60;;
61435;SDS011;47304;47.456;19.160;2023-08-21T01:52:41;13.40;;;10.80;;
61435;SDS011;47304;47.456;19.160;2023-08-21T01:55:08;15.50;;;11.80;;
61435;SDS011;47304;47.456;19.160;2023-08-21T01:57:35;13.40;;;11.20;;
61435;SDS011;47304;47.456;19.160;2023-08-21T02:00:02;13.10;;;10.90;;
61435;SDS011;47304;47.456;19.160;2023-08-21T02:02:29;13.40;;;11.30;;
61435;SDS011;47304;47.456;19.160;2023-08-21T02:04:56;13.00;;;10.60;;
61435;SDS011;47304;47.456;19.160;2023-08-21T02:07:22;16.20;;;11.20;;
61435;SDS011;47304;47.456;19.160;2023-08-21T02:09:49;17.10;;;12.70;;
61435;SDS011;47304;47.456;19.160;2023-08-21T02:12:15;16.10;;;11.50;;
61435;SDS011;47304;47.456;19.160;2023-08-21T02:14:42;14.70;;;11.20;;
61435;SDS011;47304;47.456;19.160;2023-08-21T02:17:08;15.40;;;11.40;;
61435;SDS011;47304;47.456;19.160;2023-08-21T02:19:35;12.50;;;10.00;;
61435;SDS011;47304;47.456;19.160;2023-08-21T02:22:01;18.10;;;11.70;;
61435;SDS011;47304;47.456;19.160;2023-08-21T02:24:28;13.80;;;10.90;;
61435;SDS011;47304;47.456;19.160;2023-08-21T02:26:54;14.30;;;10.80;;
61435;SDS011;47304;47.456;19.160;2023-08-21T02:29:21;14.40;;;11.90;;
61435;SDS011;47304;47.456;19.160;2023-08-21T02:31:47;14.80;;;11.50;;
61435;SDS011;47304;47.456;19.160;2023-08-21T02:34:14;18.40;;;11.90;;
61435;SDS011;47304;47.456;19.160;2023-08-21T02:36:40;16.20;;;11.80;;
61435;SDS011;47304;47.456;19.160;2023-08-21T02:39:07;16.40;;;12.40;;
61435;SDS011;47304;47.456;19.160;2023-08-21T02:41:33;14.70;;;12.10;;
61435;SDS011;47304;47.456;19.160;2023-08-21T02:44:00;16.60;;;13.60;;
61435;SDS011;47304;47.456;19.160;2023-08-21T02:46:26;14.40;;;12.20;;
61435;SDS011;47304;47.456;19.160;2023-08-21T02:48:53;15.70;;;11.90;;
61435;SDS011;47304;47.456;19.160;2023-08-21T02:51:20;18.00;;;13.00;;
61435;SDS011;47304;47.456;19.160;2023-08-21T02:53:46;15.30;;;12.00;;
61435;SDS011;47304;47.456;19.160;2023-08-21T02:56:13;13.20;;;11.00;;
61435;SDS011;47304;47.456;19.160;2023-08-21T02:58:39;14.90;;;11.60;;
61435;SDS011;47304;47.456;19.160;2023-08-21T03:01:06;15.60;;;11.30;;
61435;SDS011;47304;47.456;19.160;2023-08-21T03:03:32;16.40;;;11.40;;
61435;SDS011;47304;47.456;19.160;2023-08-21T03:05:59;15.80;;;10.80;;
61435;SDS011;47304;47.456;19.160;2023-08-21T03:08:25;16.60;;;10.90;;
61435;SDS011;47304;47.456;19.160;2023-08-21T03:10:52;16.30;;;12.00;;
61435;SDS011;47304;47.456;19.160;2023-08-21T03:13:19;14.90;;;11.50;;
61435;SDS011;47304;47.456;19.160;2023-08-21T03:15:45;15.90;;;11.20;;
61435;SDS011;47304;47.456;19.160;2023-08-21T03:18:12;14.40;;;11.20;;
61435;SDS011;47304;47.456;19.160;2023-08-21T03:20:43;15.90;;;10.90;;
61435;SDS011;47304;47.456;19.160;2023-08-21T03:23:13;14.60;;;10.60;;
61435;SDS011;47304;47.456;19.160;2023-08-21T03:25:40;14.40;;;11.30;;
61435;SDS011;47304;47.456;19.160;2023-08-21T03:28:06;15.00;;;11.30;;
61435;SDS011;47304;47.456;19.160;2023-08-21T03:30:33;14.40;;;10.80;;
61435;SDS011;47304;47.456;19.160;2023-08-21T03:33:00;15.70;;;11.90;;
61435;SDS011;47304;47.456;19.160;2023-08-21T03:35:26;14.10;;;10.80;;
61435;SDS011;47304;47.456;19.160;2023-08-21T03:37:53;15.70;;;11.50;;
61435;SDS011;47304;47.456;19.160;2023-08-21T03:40:19;14.40;;;10.60;;
61435;SDS011;47304;47.456;19.160;2023-08-21T03:42:46;15.10;;;11.70;;
61435;SDS011;47304;47.456;19.160;2023-08-21T03:45:12;13.60;;;11.00;;
61435;SDS011;47304;47.456;19.160;2023-08-21T03:47:39;13.80;;;11.10;;
61435;SDS011;47304;47.456;19.160;2023-08-21T03:50:05;15.40;;;11.50;;
61435;SDS011;47304;47.456;19.160;2023-08-21T03:52:32;16.50;;;12.20;;
61435;SDS011;47304;47.456;19.160;2023-08-21T03:54:59;17.10;;;10.90;;
61435;SDS011;47304;47.456;19.160;2023-08-21T03:57:25;13.70;;;10.90;;
61435;SDS011;47304;47.456;19.160;2023-08-21T03:59:52;15.00;;;11.80;;
61435;SDS011;47304;47.456;19.160;2023-08-21T04:02:18;18.90;;;12.70;;
61435;SDS011;47304;47.456;19.160;2023-08-21T04:04:45;15.80;;;12.10;;
61435;SDS011;47304;47.456;19.160;2023-08-21T04:07:12;15.10;;;12.00;;
61435;SDS011;47304;47.456;19.160;2023-08-21T04:09:38;15.80;;;12.00;;
61435;SDS011;47304;47.456;19.160;2023-08-21T04:12:05;16.10;;;12.40;;
61435;SDS011;47304;47.456;19.160;2023-08-21T04:14:31;17.10;;;12.30;;
61435;SDS011;47304;47.456;19.160;2023-08-21T04:16:58;15.60;;;12.30;;
61435;SDS011;47304;47.456;19.160;2023-08-21T04:19:24;14.50;;;11.80;;
61435;SDS011;47304;47.456;19.160;2023-08-21T04:21:51;16.30;;;12.10;;
61435;SDS011;47304;47.456;19.160;2023-08-21T04:24:17;15.30;;;11.90;;
61435;SDS011;47304;47.456;19.160;2023-08-21T04:26:44;15.30;;;11.60;;
61435;SDS011;47304;47.456;19.160;2023-08-21T04:29:11;17.20;;;12.60;;
61435;SDS011;47304;47.456;19.160;2023-08-21T04:31:37;16.60;;;12.20;;
61435;SDS011;47304;47.456;19.160;2023-08-21T04:34:04;17.00;;;12.10;;
61435;SDS011;47304;47.456;19.160;2023-08-21T04:36:30;15.50;;;11.80;;
61435;SDS011;47304;47.456;19.160;2023-08-21T04:38:57;15.70;;;12.50;;
61435;SDS011;47304;47.456;19.160;2023-08-21T04:41:23;17.20;;;12.50;;
61435;SDS011;47304;47.456;19.160;2023-08-21T04:43:50;17.00;;;12.10;;
61435;SDS011;47304;47.456;19.160;2023-08-21T04:46:16;14.40;;;11.40;;
61435;SDS011;47304;47.456;19.160;2023-08-21T04:48:43;14.30;;;11.70;;
61435;SDS011;47304;47.456;19.160;2023-08-21T04:51:09;17.80;;;12.00;;
61435;SDS011;47304;47.456;19.160;2023-08-21T04:53:36;16.00;;;12.10;;
61435;SDS011;47304;47.456;19.160;2023-08-21T04:56:02;15.50;;;11.90;;
61435;SDS011;47304;47.456;19.160;2023-08-21T04:58:29;13.90;;;11.00;;
61435;SDS011;47304;47.456;19.160;2023-08-21T05:00:56;17.40;;;11.80;;
61435;SDS011;47304;47.456;19.160;2023-08-21T05:03:22;18.60;;;11.20;;
61435;SDS011;47304;47.456;19.160;2023-08-21T05:05:55;15.60;;;11.60;;
61435;SDS011;47304;47.456;19.160;2023-08-21T05:08:23;14.80;;;11.70;;
61435;SDS011;47304;47.456;19.160;2023-08-21T05:10:56;16.10;;;11.40;;
61435;SDS011;47304;47.456;19.160;2023-08-21T05:13:24;15.40;;;11.40;;
61435;SDS011;47304;47.456;19.160;2023-08-21T05:15:55;14.10;;;11.20;;
61435;SDS011;47304;47.456;19.160;2023-08-21T05:18:22;15.60;;;11.60;;
61435;SDS011;47304;47.456;19.160;2023-08-21T05:20:50;14.50;;;11.40;;
61435;SDS011;47304;47.456;19.160;2023-08-21T05:23:20;15.00;;;11.90;;
61435;SDS011;47304;47.456;19.160;2023-08-21T05:25:47;14.60;;;11.60;;
61435;SDS011;47304;47.456;19.160;2023-08-21T05:28:15;16.10;;;11.30;;
61435;SDS011;47304;47.456;19.160;2023-08-21T05:30:41;16.00;;;11.60;;
61435;SDS011;47304;47.456;19.160;2023-08-21T05:33:08;15.40;;;11.10;;
61435;SDS011;47304;47.456;19.160;2023-08-21T05:35:35;15.30;;;11.50;;
61435;SDS011;47304;47.456;19.160;2023-08-21T05:38:02;18.40;;;11.30;;
61435;SDS011;47304;47.456;19.160;2023-08-21T05:40:30;13.40;;;10.70;;
61435;SDS011;47304;47.456;19.160;2023-08-21T05:42:57;13.80;;;10.20;;
61435;SDS011;47304;47.456;19.160;2023-08-21T05:45:24;13.00;;;10.10;;
61435;SDS011;47304;47.456;19.160;2023-08-21T05:47:51;14.80;;;10.50;;
61435;SDS011;47304;47.456;19.160;2023-08-21T05:50:17;14.60;;;11.00;;
61435;SDS011;47304;47.456;19.160;2023-08-21T05:52:44;14.20;;;11.00;;
61435;SDS011;47304;47.456;19.160;2023-08-21T05:55:10;14.10;;;11.00;;
61435;SDS011;47304;47.456;19.160;2023-08-21T05:57:37;14.60;;;10.80;;
61435;SDS011;47304;47.456;19.160;2023-08-21T06:00:04;12.90;;;10.40;;
61435;SDS011;47304;47.456;19.160;2023-08-21T06:02:31;14.30;;;10.10;;
61435;SDS011;47304;47.456;19.160;2023-08-21T06:04:58;14.50;;;11.20;;
61435;SDS011;47304;47.456;19.160;2023-08-21T06:07:24;14.40;;;10.80;;
61435;SDS011;47304;47.456;19.160;2023-08-21T06:09:51;14.70;;;10.70;;
61435;SDS011;47304;47.456;19.160;2023-08-21T06:12:18;15.80;;;10.90;;
61435;SDS011;47304;47.456;19.160;2023-08-21T06:14:45;16.50;;;11.50;;
61435;SDS011;47304;47.456;19.160;2023-08-21T06:17:11;13.10;;;10.60;;
61435;SDS011;47304;47.456;19.160;2023-08-21T06:19:38;16.80;;;10.90;;
61435;SDS011;47304;47.456;19.160;2023-08-21T06:22:04;14.60;;;12.00;;
61435;SDS011;47304;47.456;19.160;2023-08-21T06:24:31;14.70;;;11.30;;
61435;SDS011;47304;47.456;19.160;2023-08-21T06:26:58;13.30;;;10.50;;
61435;SDS011;47304;47.456;19.160;2023-08-21T06:29:24;18.20;;;10.80;;
61435;SDS011;47304;47.456;19.160;2023-08-21T06:31:51;14.70;;;10.30;;
61435;SDS011;47304;47.456;19.160;2023-08-21T06:34:17;14.30;;;11.00;;
61435;SDS011;47304;47.456;19.160;2023-08-21T06:36:44;15.20;;;10.50;;
61435;SDS011;47304;47.456;19.160;2023-08-21T06:39:10;14.10;;;10.40;;
61435;SDS011;47304;47.456;19.160;2023-08-21T06:41:37;12.40;;;10.30;;
61435;SDS011;47304;47.456;19.160;2023-08-21T06:44:04;13.60;;;10.20;;
61435;SDS011;47304;47.456;19.160;2023-08-21T06:46:30;14.40;;;11.30;;
61435;SDS011;47304;47.456;19.160;2023-08-21T06:48:57;13.90;;;10.60;;
61435;SDS011;47304;47.456;19.160;2023-08-21T06:51:23;13.30;;;10.20;;
61435;SDS011;47304;47.456;19.160;2023-08-21T06:53:50;16.30;;;10.50;;
61435;SDS011;47304;47.456;19.160;2023-08-21T06:56:16;13.20;;;10.70;;
61435;SDS011;47304;47.456;19.160;2023-08-21T06:58:43;14.80;;;10.80;;
61435;SDS011;47304;47.456;19.160;2023-08-21T07:01:10;14.30;;;10.70;;
61435;SDS011;47304;47.456;19.160;2023-08-21T07:03:36;14.90;;;10.20;;
61435;SDS011;47304;47.456;19.160;2023-08-21T07:06:03;13.80;;;10.60;;
61435;SDS011;47304;47.456;19.160;2023-08-21T07:08:29;12.90;;;10.70;;
61435;SDS011;47304;47.456;19.160;2023-08-21T07:10:56;14.70;;;10.80;;
61435;SDS011;47304;47.456;19.160;2023-08-21T07:13:22;15.10;;;11.50;;
61435;SDS011;47304;47.456;19.160;2023-08-21T07:15:52;15.30;;;11.00;;
61435;SDS011;47304;47.456;19.160;2023-08-21T07:18:19;12.50;;;10.20;;
61435;SDS011;47304;47.456;19.160;2023-08-21T07:20:45;15.30;;;10.70;;
61435;SDS011;47304;47.456;19.160;2023-08-21T07:23:12;15.70;;;11.10;;
61435;SDS011;47304;47.456;19.160;2023-08-21T07:25:39;13.10;;;10.30;;
61435;SDS011;47304;47.456;19.160;2023-08-21T07:28:05;16.30;;;11.70;;
61435;SDS011;47304;47.456;19.160;2023-08-21T07:30:32;13.80;;;10.70;;
61435;SDS011;47304;47.456;19.160;2023-08-21T07:33:02;16.90;;;12.10;;
61435;SDS011;47304;47.456;19.160;2023-08-21T07:35:28;15.10;;;11.70;;
61435;SDS011;47304;47.456;19.160;2023-08-21T07:37:55;14.10;;;10.10;;
61435;SDS011;47304;47.456;19.160;2023-08-21T07:40:22;14.00;;;10.70;;
61435;SDS011;47304;47.456;19.160;2023-08-21T07:42:48;14.70;;;10.10;;
61435;SDS011;47304;47.456;19.160;2023-08-21T07:45:15;13.90;;;10.50;;
61435;SDS011;47304;47.456;19.160;2023-08-21T07:47:42;15.10;;;11.10;;
61435;SDS011;47304;47.456;19.160;2023-08-21T07:50:08;16.60;;;11.90;;
61435;SDS011;47304;47.456;19.160;2023-08-21T07:52:35;15.00;;;9.90;;
61435;SDS011;47304;47.456;19.160;2023-08-21T07:55:03;12.80;;;10.30;;
61435;SDS011;47304;47.456;19.160;2023-08-21T07:57:30;15.20;;;10.80;;
61435;SDS011;47304;47.456;19.160;2023-08-21T07:59:56;13.70;;;10.60;;
61435;SDS011;47304;47.456;19.160;2023-08-21T08:02:24;14.00;;;10.90;;
61435;SDS011;47304;47.456;19.160;2023-08-21T08:04:51;13.50;;;10.00;;
61435;SDS011;47304;47.456;19.160;2023-08-21T08:07:18;12.50;;;9.60;;
61435;SDS011;47304;47.456;19.160;2023-08-21T08:09:44;22.40;;;16.70;;
61435;SDS011;47304;47.456;19.160;2023-08-21T08:12:11;16.70;;;11.60;;
61435;SDS011;47304;47.456;19.160;2023-08-21T08:14:37;12.20;;;10.10;;
61435;SDS011;47304;47.456;19.160;2023-08-21T08:17:04;12.10;;;9.90;;
61435;SDS011;47304;47.456;19.160;2023-08-21T08:19:31;13.30;;;10.30;;
61435;SDS011;47304;47.456;19.160;2023-08-21T08:21:57;11.40;;;8.90;;
61435;SDS011;47304;47.456;19.160;2023-08-21T08:24:24;12.80;;;9.40;;
61435;SDS011;47304;47.456;19.160;2023-08-21T08:26:50;12.20;;;9.70;;
61435;SDS011;47304;47.456;19.160;2023-08-21T08:29:17;13.20;;;9.80;;
61435;SDS011;47304;47.456;19.160;2023-08-21T08:31:43;14.90;;;10.40;;
61435;SDS011;47304;47.456;19.160;2023-08-21T08:34:10;14.30;;;9.70;;
61435;SDS011;47304;47.456;19.160;2023-08-21T08:36:37;12.20;;;9.10;;
61435;SDS011;47304;47.456;19.160;2023-08-21T08:39:03;13.40;;;10.00;;
61435;SDS011;47304;47.456;19.160;2023-08-21T08:41:32;12.10;;;9.30;;
61435;SDS011;47304;47.456;19.160;2023-08-21T08:44:02;11.50;;;10.10;;
61435;SDS011;47304;47.456;19.160;2023-08-21T08:46:30;12.10;;;9.40;;
61435;SDS011;47304;47.456;19.160;2023-08-21T08:48:57;11.10;;;8.90;;
61435;SDS011;47304;47.456;19.160;2023-08-21T08:51:24;14.60;;;9.20;;
61435;SDS011;47304;47.456;19.160;2023-08-21T08:53:53;11.00;;;8.80;;
61435;SDS011;47304;47.456;19.160;2023-08-21T08:56:21;12.30;;;9.20;;
61435;SDS011;47304;47.456;19.160;2023-08-21T08:58:48;15.00;;;8.80;;
61435;SDS011;47304;47.456;19.160;2023-08-21T09:01:14;13.30;;;9.50;;
61435;SDS011;47304;47.456;19.160;2023-08-21T09:03:41;11.40;;;8.80;;
61435;SDS011;47304;47.456;19.160;2023-08-21T09:06:08;12.30;;;9.80;;
61435;SDS011;47304;47.456;19.160;2023-08-21T09:08:34;13.40;;;9.30;;
61435;SDS011;47304;47.456;19.160;2023-08-21T09:11:01;13.60;;;9.60;;
61435;SDS011;47304;47.456;19.160;2023-08-21T09:13:28;14.30;;;9.00;;
61435;SDS011;47304;47.456;19.160;2023-08-21T09:15:57;10.80;;;8.60;;
61435;SDS011;47304;47.456;19.160;2023-08-21T09:18:25;11.20;;;8.40;;
61435;SDS011;47304;47.456;19.160;2023-08-21T09:20:51;11.30;;;8.20;;
61435;SDS011;47304;47.456;19.160;2023-08-21T09:23:18;14.00;;;10.40;;
61435;SDS011;47304;47.456;19.160;2023-08-21T09:25:46;12.40;;;9.30;;
61435;SDS011;47304;47.456;19.160;2023-08-21T09:28:14;13.20;;;10.10;;
61435;SDS011;47304;47.456;19.160;2023-08-21T09:33:10;13.40;;;8.30;;
61435;SDS011;47304;47.456;19.160;2023-08-21T09:35:37;10.70;;;8.30;;
61435;SDS011;47304;47.456;19.160;2023-08-21T09:38:03;10.10;;;7.90;;
61435;SDS011;47304;47.456;19.160;2023-08-21T09:40:30;10.40;;;8.10;;
61435;SDS011;47304;47.456;19.160;2023-08-21T09:42:57;12.10;;;8.30;;
61435;SDS011;47304;47.456;19.160;2023-08-21T09:45:23;11.60;;;8.90;;
61435;SDS011;47304;47.456;19.160;2023-08-21T09:47:53;10.70;;;7.90;;
61435;SDS011;47304;47.456;19.160;2023-08-21T09:50:21;11.70;;;9.00;;
61435;SDS011;47304;47.456;19.160;2023-08-21T09:52:48;11.90;;;8.00;;
61435;SDS011;47304;47.456;19.160;2023-08-21T09:55:16;10.90;;;8.40;;
61435;SDS011;47304;47.456;19.160;2023-08-21T09:57:44;10.50;;;7.90;;
61435;SDS011;47304;47.456;19.160;2023-08-21T10:00:11;10.20;;;7.70;;
61435;SDS011;47304;47.456;19.160;2023-08-21T10:02:38;10.60;;;7.80;;
61435;SDS011;47304;47.456;19.160;2023-08-21T10:05:05;10.50;;;7.40;;
61435;SDS011;47304;47.456;19.160;2023-08-21T10:07:32;11.10;;;7.00;;
61435;SDS011;47304;47.456;19.160;2023-08-21T10:09:59;10.00;;;7.60;;
61435;SDS011;47304;47.456;19.160;2023-08-21T10:12:26;12.10;;;8.20;;
61435;SDS011;47304;47.456;19.160;2023-08-21T10:14:53;10.30;;;8.00;;
61435;SDS011;47304;47.456;19.160;2023-08-21T10:17:20;10.00;;;7.20;;
61435;SDS011;47304;47.456;19.160;2023-08-21T10:19:55;10.50;;;8.00;;
61435;SDS011;47304;47.456;19.160;2023-08-21T10:25:18;10.60;;;8.20;;
61435;SDS011;47304;47.456;19.160;2023-08-21T10:27:56;16.90;;;12.60;;
61435;SDS011;47304;47.456;19.160;2023-08-21T10:30:24;10.90;;;8.30;;
61435;SDS011;47304;47.456;19.160;2023-08-21T10:32:59;10.10;;;7.90;;
61435;SDS011;47304;47.456;19.160;2023-08-21T10:35:30;10.80;;;8.00;;
61435;SDS011;47304;47.456;19.160;2023-08-21T10:38:10;11.90;;;7.70;;
61435;SDS011;47304;47.456;19.160;2023-08-21T10:40:39;10.00;;;7.40;;
61435;SDS011;47304;47.456;19.160;2023-08-21T10:46:06;9.60;;;7.30;;
61435;SDS011;47304;47.456;19.160;2023-08-21T10:48:33;10.50;;;6.50;;
61435;SDS011;47304;47.456;19.160;2023-08-21T10:51:03;10.50;;;7.60;;
61435;SDS011;47304;47.456;19.160;2023-08-21T10:53:31;9.70;;;6.80;;
61435;SDS011;47304;47.456;19.160;2023-08-21T10:56:02;10.40;;;7.30;;
61435;SDS011;47304;47.456;19.160;2023-08-21T10:58:41;9.10;;;6.80;;
61435;SDS011;47304;47.456;19.160;2023-08-21T11:01:09;9.00;;;6.60;;
61435;SDS011;47304;47.456;19.160;2023-08-21T11:03:39;10.80;;;6.40;;
61435;SDS011;47304;47.456;19.160;2023-08-21T11:06:09;9.30;;;6.90;;
61435;SDS011;47304;47.456;19.160;2023-08-21T11:08:36;11.10;;;7.00;;
61435;SDS011;47304;47.456;19.160;2023-08-21T11:11:04;8.40;;;6.30;;
61435;SDS011;47304;47.456;19.160;2023-08-21T11:13:32;9.70;;;6.50;;
61435;SDS011;47304;47.456;19.160;2023-08-21T11:16:02;10.30;;;6.90;;
61435;SDS011;47304;47.456;19.160;2023-08-21T11:18:31;9.40;;;7.20;;
61435;SDS011;47304;47.456;19.160;2023-08-21T11:21:09;10.40;;;7.30;;
61435;SDS011;47304;47.456;19.160;2023-08-21T11:23:37;9.60;;;7.60;;
61435;SDS011;47304;47.456;19.160;2023-08-21T11:26:06;11.10;;;8.20;;
61435;SDS011;47304;47.456;19.160;2023-08-21T11:28:46;13.10;;;9.60;;
61435;SDS011;47304;47.456;19.160;2023-08-21T11:31:13;11.20;;;7.60;;
61435;SDS011;47304;47.456;19.160;2023-08-21T11:33:40;10.00;;;7.70;;
61435;SDS011;47304;47.456;19.160;2023-08-21T11:36:06;9.40;;;7.50;;
61435;SDS011;47304;47.456;19.160;2023-08-21T11:38:33;12.00;;;7.80;;
61435;SDS011;47304;47.456;19.160;2023-08-21T11:41:00;9.50;;;7.80;;
61435;SDS011;47304;47.456;19.160;2023-08-21T11:43:40;9.80;;;8.20;;
61435;SDS011;47304;47.456;19.160;2023-08-21T11:48:38;11.20;;;8.00;;
61435;SDS011;47304;47.456;19.160;2023-08-21T11:51:07;10.50;;;8.50;;
61435;SDS011;47304;47.456;19.160;2023-08-21T11:53:38;11.40;;;7.50;;
61435;SDS011;47304;47.456;19.160;2023-08-21T11:56:09;9.90;;;7.80;;
61435;SDS011;47304;47.456;19.160;2023-08-21T11:58:38;10.70;;;8.30;;
61435;SDS011;47304;47.456;19.160;2023-08-21T12:01:06;9.40;;;7.90;;
61435;SDS011;47304;47.456;19.160;2023-08-21T12:03:37;10.20;;;8.00;;
61435;SDS011;47304;47.456;19.160;2023-08-21T12:06:08;10.00;;;8.30;;
61435;SDS011;47304;47.456;19.160;2023-08-21T12:08:36;9.90;;;8.00;;
61435;SDS011;47304;47.456;19.160;2023-08-21T12:11:05;10.20;;;8.00;;
61435;SDS011;47304;47.456;19.160;2023-08-21T12:13:32;10.10;;;8.40;;
61435;SDS011;47304;47.456;19.160;2023-08-21T12:16:01;10.20;;;7.60;;
61435;SDS011;47304;47.456;19.160;2023-08-21T12:18:28;10.20;;;8.30;;
61435;SDS011;47304;47.456;19.160;2023-08-21T12:20:54;10.80;;;8.70;;
61435;SDS011;47304;47.456;19.160;2023-08-21T12:23:21;12.30;;;8.80;;
61435;SDS011;47304;47.456;19.160;2023-08-21T12:25:48;11.20;;;7.90;;
61435;SDS011;47304;47.456;19.160;2023-08-21T12:28:14;12.30;;;8.30;;
61435;SDS011;47304;47.456;19.160;2023-08-21T12:30:41;10.80;;;8.20;;
61435;SDS011;47304;47.456;19.160;2023-08-21T12:33:07;11.90;;;8.50;;
61435;SDS011;47304;47.456;19.160;2023-08-21T12:35:48;11.10;;;7.60;;
61435;SDS011;47304;47.456;19.160;2023-08-21T12:38:15;10.50;;;7.50;;
61435;SDS011;47304;47.456;19.160;2023-08-21T12:40:42;9.70;;;7.40;;
61435;SDS011;47304;47.456;19.160;2023-08-21T12:43:08;10.70;;;7.70;;
61435;SDS011;47304;47.456;19.160;2023-08-21T12:45:35;9.60;;;7.50;;
61435;SDS011;47304;47.456;19.160;2023-08-21T12:48:03;10.50;;;7.50;;
61435;SDS011;47304;47.456;19.160;2023-08-21T12:53:25;10.50;;;7.60;;
61435;SDS011;47304;47.456;19.160;2023-08-21T12:55:51;10.00;;;7.80;;
61435;SDS011;47304;47.456;19.160;2023-08-21T12:58:18;10.00;;;7.40;;
61435;SDS011;47304;47.456;19.160;2023-08-21T13:00:44;10.30;;;7.50;;
61435;SDS011;47304;47.456;19.160;2023-08-21T13:03:11;10.00;;;7.40;;
61435;SDS011;47304;47.456;19.160;2023-08-21T13:05:38;9.40;;;7.40;;
61435;SDS011;47304;47.456;19.160;2023-08-21T13:08:04;11.60;;;7.70;;
61435;SDS011;47304;47.456;19.160;2023-08-21T13:10:31;10.30;;;7.90;;
61435;SDS011;47304;47.456;19.160;2023-08-21T13:12:57;11.20;;;8.00;;
61435;SDS011;47304;47.456;19.160;2023-08-21T13:15:24;10.30;;;8.20;;
61435;SDS011;47304;47.456;19.160;2023-08-21T13:17:51;12.50;;;8.30;;
61435;SDS011;47304;47.456;19.160;2023-08-21T13:20:17;10.60;;;7.80;;
61435;SDS011;47304;47.456;19.160;2023-08-21T13:22:44;12.00;;;7.70;;
61435;SDS011;47304;47.456;19.160;2023-08-21T13:25:15;12.10;;;8.20;;
61435;SDS011;47304;47.456;19.160;2023-08-21T13:27:43;11.80;;;8.10;;
61435;SDS011;47304;47.456;19.160;2023-08-21T13:30:10;10.80;;;7.90;;
61435;SDS011;47304;47.456;19.160;2023-08-21T13:32:37;11.00;;;7.90;;
61435;SDS011;47304;47.456;19.160;2023-08-21T13:35:03;10.50;;;7.90;;
61435;SDS011;47304;47.456;19.160;2023-08-21T13:37:30;10.90;;;7.90;;
61435;SDS011;47304;47.456;19.160;2023-08-21T13:39:56;10.30;;;7.80;;
61435;SDS011;47304;47.456;19.160;2023-08-21T13:42:24;10.90;;;8.20;;
61435;SDS011;47304;47.456;19.160;2023-08-21T13:44:50;11.20;;;8.00;;
61435;SDS011;47304;47.456;19.160;2023-08-21T13:47:18;11.40;;;7.60;;
61435;SDS011;47304;47.456;19.160;2023-08-21T13:49:44;10.00;;;7.80;;
61435;SDS011;47304;47.456;19.160;2023-08-21T13:52:11;10.30;;;6.90;;
61435;SDS011;47304;47.456;19.160;2023-08-21T13:54:38;10.70;;;6.70;;
61435;SDS011;47304;47.456;19.160;2023-08-21T13:57:04;10.10;;;6.80;;
61435;SDS011;47304;47.456;19.160;2023-08-21T13:59:31;9.70;;;6.90;;
61435;SDS011;47304;47.456;19.160;2023-08-21T14:01:58;9.00;;;6.40;;
61435;SDS011;47304;47.456;19.160;2023-08-21T14:04:25;10.60;;;6.90;;
61435;SDS011;47304;47.456;19.160;2023-08-21T14:06:51;9.30;;;6.90;;
61435;SDS011;47304;47.456;19.160;2023-08-21T14:09:18;9.40;;;6.60;;
61435;SDS011;47304;47.456;19.160;2023-08-21T14:11:44;9.20;;;6.30;;
61435;SDS011;47304;47.456;19.160;2023-08-21T14:14:11;9.90;;;6.90;;
61435;SDS011;47304;47.456;19.160;2023-08-21T14:16:37;9.10;;;6.20;;
61435;SDS011;47304;47.456;19.160;2023-08-21T14:19:04;8.80;;;6.40;;
61435;SDS011;47304;47.456;19.160;2023-08-21T14:21:30;9.20;;;6.20;;
61435;SDS011;47304;47.456;19.160;2023-08-21T14:23:57;9.30;;;5.90;;
61435;SDS011;47304;47.456;19.160;2023-08-21T14:26:23;9.90;;;6.20;;
61435;SDS011;47304;47.456;19.160;2023-08-21T14:28:50;10.30;;;6.50;;
61435;SDS011;47304;47.456;19.160;2023-08-21T14:31:17;9.10;;;6.50;;
61435;SDS011;47304;47.456;19.160;2023-08-21T14:33:43;9.10;;;6.10;;